Accueil
METAR-TAF:

METAR-TAF

Aéroports :

Lyndonville, Vermont, États-Unis

latitude: 44-34-09N, longitude: 072-01-05W, altitude: 362 m

Observation

Le bulletin a été fait il y a 23 minutes, à 00:56 UTC
Vent calme
Température 12°C
Humidité 71%
Pression 1010 hPa
Visibilité: 16.1 km
Nuages fragmentés à une hauteur de 4800 ft
Ciel couvert à une hauteur de 5000 ft

METAR: KCDA 030056Z AUTO 00000KT 10SM BKN048 OVC050 12/07 A2983 RMK AO2 T01210066

Heure: 21:19 (01:19 UTC)


TAF: absent

Observations et prévisions météorologiques de plus de 4000 aéroports (messages METAR et TAF).

Les stations disponibles sont représentées par des disques jaunes et rouges sur la carte.

Passer la souris dessus pour voir le nom de la station.

Cliquer dessus pour voir les observations et prévisions météorologiques.

Pour changer de carte: cliquez sur les boutons verts avec une croix noire pour zoomer, sur le bouton vert avec un tiret pour effectuer un zoom arrière, ou sur les flèches vertes pour les cartes adjacentes.


METAR-TAF: